Аэропорт: Абакан. Абакан

ICAO: UNAA

METAR:
2020-06-02 06:30:00
UNAA 020630Z 20003MPS 9999 BKN017 13/10 Q1005 R20/090065 NOSIG RMK QFE731
METAR:
2020-06-02 04:59:00
TAF UNAA 020459Z 0206/0306 21003G10MPS 9999 SCT016CB TEMPO 0206/0221 25008G13MPS 6000 -TSRA BKN011CB BECMG 0221/0223 27005G13MPS